Aérodrome :
LOGIN :

S'inscrire | Disclaimer

   EN    FR    IT 

 










Légende :    VFR   VFR Marginal   IFR   IFR Intensif   IFR Très Intensif
Visi : 
Plafond : 
>= 8 km
>= 3000ft
5 à 8 km
1000 à 3000 ft
1500m à 5 km
500 à 1000 ft
800 à 1500m
200 à 500 ft
< 800m
< 200 ft
Symboles :   Orages  Brouillard  Fortes neiges  Fortes précipitations  Vent > 20 kt
SIGMETs :   Divers  Orages  Givrage  Turbulence  Onde Orograph.  Cendres Volcan.






- Altitude de l'aérodrome : 63 ft
- Code IATA : BZM


EHWO - Woensdrecht Airbase

DERNIER METAR :
  • 271055Z AUTO 07006KT 040V100 5000 BR SCT007 BKN008 OVC009 08/07 Q1019 GRN

METARs EXPIRÉS :
  • 271039Z AUTO 06006KT 020V100 5000 BR BKN006 OVC007 08/07 Q1019 YLO
  • 271028Z AUTO 08007KT 010V090 5000 BR SCT006 BKN007 BKN008 08/07 Q1019 YLO
  • 271025Z AUTO 08007KT 030V100 5000 BR SCT006 BKN007 BKN050 08/07 Q1019 YLO
  • 271006Z AUTO 07006KT 040V120 4500 BR SCT005 BKN006 BKN052 08/07 Q1019 YLO TEMPO 2000 DZRA SCT003 OVC005
  • 270958Z AUTO 07006KT 040V100 4000 BR FEW004 SCT005 BKN057 08/07 Q1019 YLO TEMPO 2000 DZRA SCT003 OVC005
  • 270940Z AUTO 07003KT 320V120 3900 DZ SCT005 BKN006 BKN011 08/07 Q1019 YLO TEMPO 2000 DZRA SCT003 OVC005
  • 270935Z AUTO 06004KT 360V110 3500 -RA FEW006 BKN011 OVC018 07/07 Q1019 YLO TEMPO 2000 DZRA SCT003 OVC005
  • 270925Z AUTO 09003KT 040V120 3900 -DZ FEW007 OVC011 07/07 Q1019 GRN TEMPO 2000 DZRA SCT003 OVC005
  • 270918Z AUTO 09003KT 040V120 3800 -DZ FEW007 OVC011 07/07 Q1019 GRN TEMPO 2000 DZRA SCT003 OVC005
  • 270904Z AUTO 07004KT 040V130 3000 R07/3000N -DZRA FEW003 SCT005 BKN007 07/07 Q1019 YLO TEMPO 2000 DZRA SCT003 OVC005
  • 270857Z AUTO 07006KT 3000 BR SCT004 BKN006 OVC007 07/07 Q1019 YLO TEMPO 2000 DZRA SCT003 OVC005
  • 270837Z AUTO VRB04KT 2900 BR SCT003 BKN005 OVC006 07/07 Q1019 YLO
  • 270826Z AUTO 08005KT 350V140 2800 BR SCT006 OVC007 07/07 Q1019 YLO

TAF TAF EHWO
Valide du 27 à 10h jusqu'au 27 à 22h UTC


270939Z 2710/2722 08004KT 4500 BR BKN012
TEMPO 2710/2717 3500 -DZ BR BKN006
PROB40
TEMPO 2710/2715 2000 DZRA BR SCT003 OVC005
BECMG 2715/2718 SCT020
BECMG 2718/2720 4000 BR
BECMG 2720/2722 2500 BR MIFG



MET'MAP, la Météo Aéronautique d'un coup d'oeil ! - Copyright ORBIFLY Décembre 2007 - Disclaimer

ORBIFLY MET'MAP TEAM :

Programmation & Développement : Alexandra Zaïnal
Sur une idée originale de : Baudouin d'Aumeries
Assistance à la programmation : Marc-Olivier Méhu
Soutien technique & logistique : Manuel Goepfert

Contact : metmap@orbifly.com




SOURCES & CREDITS :

   NOAA